createdAt,value
2019-04-06T00:01:45.175Z,12.44
2019-04-06T00:04:21.347Z,12.43
2019-04-06T00:06:54.167Z,12.40
2019-04-06T00:09:26.925Z,12.37
2019-04-06T00:11:59.702Z,12.32
2019-04-06T00:14:33.092Z,12.35
2019-04-06T00:17:05.972Z,12.26
2019-04-06T00:19:39.891Z,12.25
2019-04-06T00:22:12.813Z,12.22
2019-04-06T00:24:45.715Z,12.19
2019-04-06T00:27:21.735Z,12.13
2019-04-06T00:29:56.653Z,12.11
2019-04-06T00:32:36.570Z,12.06
2019-04-06T00:35:10.762Z,12.09
2019-04-06T00:37:43.641Z,12.02
2019-04-06T00:40:17.522Z,12.01
2019-04-06T00:42:50.466Z,11.96
2019-04-06T00:45:23.390Z,11.95
2019-04-06T00:47:56.184Z,11.89
2019-04-06T00:50:29.044Z,11.85
2019-04-06T00:53:02.839Z,11.84
2019-04-06T00:55:35.831Z,11.82
2019-04-06T00:58:15.699Z,11.75
2019-04-06T01:00:48.540Z,11.74
2019-04-06T01:03:21.332Z,11.70
2019-04-06T01:05:56.389Z,11.68
2019-04-06T01:08:29.234Z,11.64
2019-04-06T01:11:03.199Z,11.63
2019-04-06T01:13:38.216Z,11.58
2019-04-06T01:16:11.286Z,11.57
2019-04-06T01:18:44.249Z,11.51
2019-04-06T01:21:17.152Z,11.46
2019-04-06T01:23:50.095Z,11.46
2019-04-06T01:26:23.025Z,11.43
2019-04-06T01:28:55.821Z,11.39
2019-04-06T01:31:30.688Z,11.36
2019-04-06T01:34:03.529Z,11.30
2019-04-06T01:36:38.356Z,11.30
2019-04-06T01:39:13.442Z,11.27
2019-04-06T01:41:46.350Z,11.20
2019-04-06T01:44:19.334Z,11.17
2019-04-06T01:46:52.123Z,11.15
2019-04-06T01:49:31.517Z,11.10
2019-04-06T01:52:05.300Z,11.08
2019-04-06T01:54:38.113Z,11.03
2019-04-06T01:57:12.581Z,11.00
2019-04-06T01:59:46.589Z,10.95
2019-04-06T02:02:30.572Z,10.92
2019-04-06T02:05:06.339Z,10.89
2019-04-06T02:07:39.202Z,10.85
2019-04-06T02:10:14.130Z,10.82
2019-04-06T02:12:49.510Z,10.77
2019-04-06T02:15:24.817Z,10.72
2019-04-06T02:18:02.275Z,10.68
2019-04-06T02:20:36.174Z,10.65
2019-04-06T02:23:08.965Z,10.61
2019-04-06T02:25:41.819Z,10.54
2019-04-06T02:28:15.406Z,10.52
2019-04-06T02:31:00.729Z,10.47
2019-04-06T02:33:52.516Z,10.45
2019-04-06T02:36:42.085Z,10.43
2019-04-06T02:39:31.888Z,10.37
2019-04-06T02:42:12.707Z,10.33
2019-04-06T02:44:45.978Z,10.30
2019-04-06T02:47:18.775Z,10.29
2019-04-06T02:49:51.613Z,10.22
2019-04-06T02:52:25.493Z,10.20
2019-04-06T02:54:58.415Z,10.14
2019-04-06T02:57:31.302Z,10.13
2019-04-06T03:00:04.343Z,10.09
2019-04-06T03:02:39.334Z,10.05
2019-04-06T03:05:13.416Z,10.02
2019-04-06T03:07:46.514Z,10.01
2019-04-06T03:10:20.841Z,9.95
2019-04-06T03:12:53.679Z,9.93
2019-04-06T03:15:26.625Z,9.89
2019-04-06T03:17:59.699Z,9.86
2019-04-06T03:20:32.611Z,9.84
2019-04-06T03:23:07.139Z,9.78
2019-04-06T03:25:41.086Z,9.76
2019-04-06T03:28:17.779Z,9.74
2019-04-06T03:30:50.703Z,9.69
2019-04-06T03:33:30.513Z,9.66
2019-04-06T03:36:04.897Z,11.89
2019-04-06T03:38:37.828Z,15.42
2019-04-06T03:41:13.369Z,15.02
2019-04-06T03:43:53.304Z,13.76
2019-04-06T03:46:30.381Z,12.89
2019-04-06T03:49:05.304Z,12.33
2019-04-06T03:51:41.806Z,11.99
2019-04-06T03:54:14.723Z,11.71
2019-04-06T03:56:47.794Z,11.51
2019-04-06T03:59:21.804Z,11.27
2019-04-06T04:01:54.747Z,11.08
2019-04-06T04:04:27.666Z,10.95
2019-04-06T04:07:00.690Z,10.75
2019-04-06T04:09:33.576Z,10.61
2019-04-06T04:12:09.671Z,10.48
2019-04-06T04:14:45.752Z,10.36
2019-04-06T04:17:18.537Z,10.22
2019-04-06T04:19:51.358Z,10.12
2019-04-06T04:22:24.546Z,10.02
2019-04-06T04:24:58.585Z,9.91
2019-04-06T04:27:31.385Z,9.84
2019-04-06T04:30:04.573Z,9.75
2019-04-06T04:32:37.534Z,9.66
2019-04-06T04:35:10.678Z,9.58
2019-04-06T04:37:43.974Z,9.53
2019-04-06T04:40:16.804Z,9.45
2019-04-06T04:42:49.726Z,9.41
2019-04-06T04:45:22.581Z,9.33
2019-04-06T04:47:55.755Z,9.29
2019-04-06T04:50:28.642Z,9.24
2019-04-06T04:53:01.786Z,11.74
2019-04-06T04:55:36.414Z,12.80
2019-04-06T04:58:09.361Z,11.98
2019-04-06T05:00:42.109Z,11.37
2019-04-06T05:03:14.963Z,10.94
2019-04-06T05:05:47.792Z,10.67
2019-04-06T05:08:20.799Z,10.50
2019-04-06T05:10:53.577Z,10.37
2019-04-06T05:13:26.434Z,10.24
2019-04-06T05:16:24.588Z,10.16
2019-04-06T05:18:57.350Z,10.10
2019-04-06T05:21:30.175Z,10.02
2019-04-06T05:24:03.009Z,9.98
2019-04-06T05:26:37.879Z,9.93
2019-04-06T05:29:10.435Z,9.89
2019-04-06T05:31:43.185Z,9.89
2019-04-06T05:34:16.048Z,9.88
2019-04-06T05:36:48.925Z,9.86
2019-04-06T05:39:21.705Z,9.86
2019-04-06T05:41:54.717Z,9.85
2019-04-06T05:44:27.607Z,9.86
2019-04-06T05:47:00.819Z,9.86
2019-04-06T05:49:33.924Z,9.91
2019-04-06T05:52:06.874Z,9.92
2019-04-06T05:54:39.814Z,9.93
2019-04-06T05:57:12.830Z,9.95
2019-04-06T05:59:45.636Z,9.95
2019-04-06T06:02:19.041Z,9.99
2019-04-06T06:04:51.999Z,10.01
2019-04-06T06:07:24.888Z,10.06
2019-04-06T06:09:57.672Z,10.06
2019-04-06T06:12:30.470Z,10.09
2019-04-06T06:15:03.514Z,10.12
2019-04-06T06:17:36.406Z,10.16
2019-04-06T06:20:09.770Z,10.20
2019-04-06T06:22:42.595Z,10.20
2019-04-06T06:25:15.702Z,10.22
2019-04-06T06:27:48.550Z,10.26
2019-04-06T06:30:24.412Z,10.29
2019-04-06T06:32:57.365Z,10.31
2019-04-06T06:35:30.198Z,10.36
2019-04-06T06:38:03.016Z,10.41
2019-04-06T06:40:35.945Z,10.47
2019-04-06T06:43:08.768Z,10.47
2019-04-06T06:45:41.768Z,10.54
2019-04-06T06:48:14.602Z,10.58
2019-04-06T06:50:48.518Z,10.61
2019-04-06T06:53:21.330Z,10.68
2019-04-06T06:55:54.397Z,10.74
2019-04-06T06:58:27.195Z,10.79
2019-04-06T07:00:59.996Z,10.84
2019-04-06T07:03:33.071Z,10.87
2019-04-06T07:06:05.997Z,10.94
2019-04-06T07:08:39.668Z,10.98
2019-04-06T07:11:12.541Z,11.06
2019-04-06T07:13:45.496Z,11.10
2019-04-06T07:16:18.442Z,11.16
2019-04-06T07:18:51.259Z,11.23
2019-04-06T07:21:24.085Z,11.30
2019-04-06T07:23:56.870Z,11.37
2019-04-06T07:26:29.658Z,11.44
2019-04-06T07:29:02.733Z,11.54
2019-04-06T07:31:35.525Z,11.65
2019-04-06T07:34:08.305Z,11.74
2019-04-06T07:36:41.086Z,11.84
2019-04-06T07:39:14.016Z,11.98
2019-04-06T07:41:46.859Z,12.12
2019-04-06T07:44:19.646Z,12.26
2019-04-06T07:46:52.683Z,12.40
2019-04-06T07:49:25.615Z,12.60
2019-04-06T07:51:58.438Z,12.74
2019-04-06T07:54:31.294Z,12.94
2019-04-06T07:57:04.443Z,13.11
2019-04-06T07:59:37.381Z,13.29
2019-04-06T08:02:10.188Z,13.43
2019-04-06T08:04:43.109Z,13.58
2019-04-06T08:07:15.937Z,13.72
2019-04-06T08:09:48.758Z,13.87
2019-04-06T08:12:21.677Z,14.00
2019-04-06T08:14:57.398Z,14.12
2019-04-06T08:17:31.554Z,14.26
2019-04-06T08:20:05.184Z,14.43
2019-04-06T08:22:37.998Z,14.62
2019-04-06T08:25:11.501Z,14.83
2019-04-06T08:27:44.558Z,14.98
2019-04-06T08:30:17.509Z,15.19
2019-04-06T08:32:50.345Z,15.36
2019-04-06T08:35:26.090Z,15.56
2019-04-06T08:37:57.869Z,15.80
2019-04-06T08:40:31.025Z,16.04
2019-04-06T08:43:03.828Z,16.21
2019-04-06T08:45:36.641Z,16.38
2019-04-06T08:48:09.453Z,16.55
2019-04-06T08:50:42.367Z,16.76
2019-04-06T08:53:15.304Z,16.94
2019-04-06T08:55:48.196Z,17.14
2019-04-06T08:58:21.498Z,17.34
2019-04-06T09:00:54.403Z,17.52
2019-04-06T09:03:27.666Z,17.68
2019-04-06T09:06:00.516Z,17.82
2019-04-06T09:08:33.295Z,18.01
2019-04-06T09:11:06.190Z,18.27
2019-04-06T09:13:40.416Z,18.51
2019-04-06T09:16:13.528Z,18.76
2019-04-06T09:18:49.154Z,18.91
2019-04-06T09:21:22.634Z,19.10
2019-04-06T09:23:58.209Z,19.11
2019-04-06T09:26:30.440Z,19.21
2019-04-06T09:29:03.315Z,19.38
2019-04-06T09:31:36.287Z,19.54
2019-04-06T09:34:10.086Z,19.62
2019-04-06T09:36:43.472Z,19.73
2019-04-06T09:39:16.211Z,19.77
2019-04-06T09:41:49.234Z,19.87
2019-04-06T09:44:39.866Z,20.02
2019-04-06T09:47:20.854Z,20.27
2019-04-06T09:50:11.426Z,20.47
2019-04-06T09:53:04.489Z,20.65
2019-04-06T09:55:58.733Z,20.85
2019-04-06T09:58:53.321Z,21.10
2019-04-06T10:01:48.037Z,21.31
2019-04-06T10:04:55.507Z,21.54
2019-04-06T10:08:05.741Z,21.62
2019-04-06T10:10:52.433Z,21.71
2019-04-06T10:13:45.182Z,21.72
2019-04-06T10:16:45.750Z,21.75
2019-04-06T10:19:35.855Z,21.86
2019-04-06T10:22:27.263Z,21.96
2019-04-06T10:25:21.734Z,22.03
2019-04-06T10:28:31.905Z,22.06
2019-04-06T10:31:18.107Z,22.09
2019-04-06T10:34:20.884Z,22.08
2019-04-06T10:37:12.044Z,22.19
2019-04-06T10:39:53.068Z,22.27
2019-04-06T10:42:32.800Z,22.36
2019-04-06T10:45:24.734Z,22.44
2019-04-06T10:48:18.081Z,22.56
2019-04-06T10:51:19.022Z,22.61
2019-04-06T10:54:13.104Z,22.68
2019-04-06T10:57:23.003Z,22.68
2019-04-06T11:00:17.426Z,22.74
2019-04-06T11:02:58.007Z,22.82
2019-04-06T11:05:55.728Z,22.85
2019-04-06T11:08:36.489Z,22.94
2019-04-06T11:11:22.858Z,23.01
2019-04-06T11:14:26.819Z,22.87
2019-04-06T11:17:09.983Z,22.88
2019-04-06T11:20:01.899Z,22.89
2019-04-06T11:23:10.292Z,22.88
2019-04-06T11:26:20.344Z,22.84
2019-04-06T11:29:18.211Z,22.75
2019-04-06T11:32:00.762Z,22.66
2019-04-06T11:34:51.406Z,22.61
2019-04-06T11:37:42.121Z,22.66
2019-04-06T11:40:40.628Z,22.70
2019-04-06T11:43:41.405Z,22.66
2019-04-06T11:46:36.024Z,22.68
2019-04-06T11:49:20.100Z,22.74
2019-04-06T11:52:04.373Z,22.78
2019-04-06T11:54:54.612Z,22.81
2019-04-06T11:57:46.320Z,22.87
2019-04-06T12:00:44.167Z,22.85
2019-04-06T12:03:25.559Z,22.85
2019-04-06T12:06:20.193Z,22.84
2019-04-06T12:09:10.913Z,22.87
2019-04-06T12:12:01.239Z,22.85
2019-04-06T12:14:52.426Z,22.74
2019-04-06T12:17:35.555Z,22.61
2019-04-06T12:20:34.042Z,22.56
2019-04-06T12:23:25.332Z,22.60
2019-04-06T12:26:17.352Z,22.60
2019-04-06T12:29:09.084Z,22.54
2019-04-06T12:31:59.944Z,22.50
2019-04-06T12:34:47.959Z,22.46
2019-04-06T12:37:37.927Z,22.47
2019-04-06T12:40:20.318Z,22.47
2019-04-06T12:43:06.052Z,22.47
2019-04-06T12:45:56.528Z,22.44
2019-04-06T12:49:06.467Z,22.39
2019-04-06T12:51:58.887Z,22.22
2019-04-06T12:54:59.468Z,22.16
2019-04-06T12:57:41.125Z,22.05
2019-04-06T13:00:32.579Z,22.03
2019-04-06T13:03:22.934Z,21.94
2019-04-06T13:06:09.378Z,21.86
2019-04-06T13:09:07.106Z,21.76
2019-04-06T13:12:04.677Z,21.68
2019-04-06T13:14:56.336Z,21.61
2019-04-06T13:17:45.272Z,21.54
2019-04-06T13:20:49.133Z,21.47
2019-04-06T13:23:28.619Z,21.40
2019-04-06T13:26:38.590Z,21.33
2019-04-06T13:29:36.756Z,21.27
2019-04-06T13:32:43.499Z,21.11
2019-04-06T13:35:50.535Z,21.03
2019-04-06T13:38:34.408Z,20.98
2019-04-06T13:41:29.196Z,20.90
2019-04-06T13:44:20.870Z,20.88
2019-04-06T13:47:05.941Z,20.78
2019-04-06T13:50:06.681Z,20.76
2019-04-06T13:53:04.769Z,20.71
2019-04-06T13:55:59.232Z,20.63
2019-04-06T13:58:53.802Z,20.56
2019-04-06T14:01:48.464Z,20.51
2019-04-06T14:04:52.183Z,20.47
2019-04-06T14:07:41.695Z,20.44
2019-04-06T14:10:27.392Z,20.41
2019-04-06T14:13:18.001Z,20.34
2019-04-06T14:16:09.924Z,20.34
2019-04-06T14:19:00.918Z,20.30
2019-04-06T14:21:55.713Z,20.27
2019-04-06T14:24:53.152Z,20.24
2019-04-06T14:27:52.446Z,20.21
2019-04-06T14:30:47.989Z,20.19
2019-04-06T14:33:48.691Z,20.16
2019-04-06T14:36:37.754Z,20.16
2019-04-06T14:39:27.937Z,20.12
2019-04-06T14:42:35.025Z,20.06
2019-04-06T14:45:38.936Z,20.03
2019-04-06T14:48:42.714Z,19.96
2019-04-06T14:51:27.325Z,19.95
2019-04-06T14:54:10.147Z,19.93
2019-04-06T14:56:48.831Z,19.92
2019-04-06T14:59:48.276Z,19.90
2019-04-06T15:02:36.942Z,19.87
2019-04-06T15:05:20.030Z,19.85
2019-04-06T15:08:05.183Z,19.82
2019-04-06T15:10:55.399Z,19.79
2019-04-06T15:13:55.874Z,19.76
2019-04-06T15:16:54.359Z,19.76
2019-04-06T15:19:54.938Z,19.73
2019-04-06T15:22:46.578Z,19.70
2019-04-06T15:25:31.717Z,19.69
2019-04-06T15:28:35.741Z,19.62
2019-04-06T15:31:49.820Z,19.62
2019-04-06T15:34:35.901Z,19.58
2019-04-06T15:37:31.262Z,19.57
2019-04-06T15:40:40.934Z,19.54
2019-04-06T15:43:25.848Z,19.49
2019-04-06T15:46:12.306Z,19.48
2019-04-06T15:49:05.899Z,19.44
2019-04-06T15:51:46.862Z,19.41
2019-04-06T15:54:44.719Z,19.38
2019-04-06T15:57:51.674Z,19.37
2019-04-06T16:00:46.348Z,19.31
2019-04-06T16:03:38.124Z,19.26
2019-04-06T16:06:28.810Z,19.24
2019-04-06T16:09:23.661Z,19.18
2019-04-06T16:12:14.582Z,19.14
2019-04-06T16:15:12.337Z,19.10
2019-04-06T16:17:52.348Z,19.03
2019-04-06T16:20:38.916Z,19.01
2019-04-06T16:23:33.471Z,18.96
2019-04-06T16:26:23.555Z,18.91
2019-04-06T16:29:18.652Z,18.86
2019-04-06T16:32:32.419Z,18.84
2019-04-06T16:35:17.849Z,18.76
2019-04-06T16:38:13.234Z,18.72
2019-04-06T16:41:00.206Z,18.66
2019-04-06T16:43:52.021Z,18.61
2019-04-06T16:46:42.790Z,18.58
2019-04-06T16:49:49.862Z,18.50
2019-04-06T16:52:41.675Z,18.45
2019-04-06T16:55:35.659Z,18.36
2019-04-06T16:58:26.255Z,18.31
2019-04-06T17:01:08.494Z,18.28
2019-04-06T17:04:12.783Z,18.20
2019-04-06T17:07:19.454Z,18.15
2019-04-06T17:10:26.393Z,18.07
2019-04-06T17:13:30.332Z,17.99
2019-04-06T17:16:22.468Z,17.89
2019-04-06T17:19:17.078Z,17.82
2019-04-06T17:22:20.679Z,17.75
2019-04-06T17:25:02.917Z,17.68
2019-04-06T17:27:57.316Z,17.62
2019-04-06T17:30:54.277Z,17.53
2019-04-06T17:33:42.861Z,17.46
2019-04-06T17:36:48.821Z,17.39
2019-04-06T17:39:29.821Z,17.31
2019-04-06T17:42:29.283Z,17.22
2019-04-06T17:45:33.474Z,17.11
2019-04-06T17:48:20.485Z,17.06
2019-04-06T17:51:25.035Z,16.99
2019-04-06T17:54:27.669Z,16.89
2019-04-06T17:57:22.350Z,16.80
2019-04-06T18:00:16.028Z,16.72
2019-04-06T18:03:11.579Z,16.64
2019-04-06T18:06:04.850Z,16.56
2019-04-06T18:08:59.529Z,16.48
2019-04-06T18:11:42.297Z,16.41
2019-04-06T18:14:17.832Z,16.33
2019-04-06T18:16:49.876Z,16.28
2019-04-06T18:19:22.871Z,16.18
2019-04-06T18:21:56.100Z,16.13
2019-04-06T18:24:29.303Z,16.05
2019-04-06T18:27:02.210Z,15.98
2019-04-06T18:29:35.289Z,15.88
2019-04-06T18:32:32.586Z,15.83
2019-04-06T18:35:06.709Z,15.73
2019-04-06T18:37:55.914Z,15.70
2019-04-06T18:40:29.567Z,15.60
2019-04-06T18:43:02.794Z,15.52
2019-04-06T18:45:35.818Z,15.47
2019-04-06T18:48:09.021Z,15.39
2019-04-06T18:50:42.147Z,15.32
2019-04-06T18:53:15.081Z,15.27
2019-04-06T18:55:48.180Z,15.22
2019-04-06T18:58:21.187Z,15.15
2019-04-06T19:01:08.971Z,15.09
2019-04-06T19:03:44.227Z,15.04
2019-04-06T19:06:17.853Z,15.01
2019-04-06T19:08:51.259Z,14.94
2019-04-06T19:11:24.624Z,14.88
2019-04-06T19:13:57.754Z,14.81
2019-04-06T19:16:31.191Z,14.77
2019-04-06T19:19:04.186Z,14.70
2019-04-06T19:21:37.676Z,14.66
2019-04-06T19:24:11.254Z,14.59
2019-04-06T19:26:44.794Z,14.50
2019-04-06T19:29:18.205Z,14.46
2019-04-06T19:31:52.637Z,14.39
2019-04-06T19:34:26.006Z,14.32
2019-04-06T19:37:00.215Z,14.26
2019-04-06T19:39:33.435Z,14.19
2019-04-06T19:42:06.517Z,14.18
2019-04-06T19:44:39.601Z,14.09
2019-04-06T19:47:12.592Z,14.05
2019-04-06T19:49:45.705Z,14.01
2019-04-06T19:52:18.797Z,13.94
2019-04-06T19:54:52.221Z,13.91
2019-04-06T19:57:25.375Z,13.83
2019-04-06T20:00:00.059Z,13.80
2019-04-06T20:02:33.467Z,13.74
2019-04-06T20:05:08.348Z,13.72
2019-04-06T20:07:43.389Z,13.67
2019-04-06T20:10:24.078Z,13.60
2019-04-06T20:12:59.651Z,13.54
2019-04-06T20:15:35.706Z,13.50
2019-04-06T20:18:09.242Z,13.45
2019-04-06T20:20:42.113Z,13.42
2019-04-06T20:23:15.254Z,13.36
2019-04-06T20:25:48.129Z,13.33
2019-04-06T20:28:21.012Z,13.29
2019-04-06T20:30:54.471Z,13.22
2019-04-06T20:33:28.374Z,13.15
2019-04-06T20:36:01.701Z,13.12
2019-04-06T20:38:34.650Z,13.07
2019-04-06T20:41:07.511Z,13.02
2019-04-06T20:43:40.454Z,12.98
2019-04-06T20:46:13.558Z,12.92
2019-04-06T20:48:46.469Z,12.91
2019-04-06T20:51:19.383Z,12.85
2019-04-06T20:53:52.283Z,12.78
2019-04-06T20:56:25.213Z,12.74
2019-04-06T20:58:58.657Z,12.70
2019-04-06T21:01:32.361Z,12.66
2019-04-06T21:04:05.422Z,12.60
2019-04-06T21:06:38.348Z,12.54
2019-04-06T21:09:15.087Z,12.53
2019-04-06T21:11:48.209Z,12.47
2019-04-06T21:14:21.568Z,12.43
2019-04-06T21:16:54.760Z,12.39
2019-04-06T21:19:28.157Z,12.36
2019-04-06T21:22:01.455Z,12.30
2019-04-06T21:24:35.014Z,12.28
2019-04-06T21:27:08.540Z,12.21
2019-04-06T21:29:41.518Z,12.18
2019-04-06T21:32:15.069Z,12.12
2019-04-06T21:34:48.564Z,12.11
2019-04-06T21:37:21.424Z,12.06
2019-04-06T21:39:54.335Z,11.99
2019-04-06T21:42:27.582Z,11.98
2019-04-06T21:45:00.616Z,11.91
2019-04-06T21:47:34.008Z,11.88
2019-04-06T21:50:08.135Z,11.82
2019-04-06T21:52:41.645Z,11.77
2019-04-06T21:55:16.155Z,11.74
2019-04-06T21:57:49.142Z,11.70
2019-04-06T22:00:38.587Z,11.65
2019-04-06T22:03:13.197Z,11.61
2019-04-06T22:05:46.456Z,11.58
2019-04-06T22:08:19.513Z,11.57
2019-04-06T22:10:52.862Z,11.50
2019-04-06T22:13:27.291Z,11.47
2019-04-06T22:16:00.745Z,11.44
2019-04-06T22:18:33.935Z,11.40
2019-04-06T22:21:07.056Z,11.40
2019-04-06T22:23:43.951Z,11.36
2019-04-06T22:26:14.624Z,11.31
2019-04-06T22:28:48.040Z,11.29
2019-04-06T22:31:21.338Z,11.25
2019-04-06T22:33:54.298Z,11.22
2019-04-06T22:36:27.708Z,11.19
2019-04-06T22:39:00.721Z,11.16
2019-04-06T22:41:35.474Z,11.12
2019-04-06T22:44:08.566Z,11.10
2019-04-06T22:46:41.846Z,11.05
2019-04-06T22:49:14.798Z,11.03
2019-04-06T22:51:48.277Z,10.96
2019-04-06T22:54:22.972Z,10.95
2019-04-06T22:56:55.864Z,10.94
2019-04-06T22:59:28.895Z,10.87
2019-04-06T23:02:01.850Z,10.85
2019-04-06T23:05:00.116Z,10.84
2019-04-06T23:07:33.650Z,10.79
2019-04-06T23:10:06.831Z,10.75
2019-04-06T23:12:40.400Z,10.72
2019-04-06T23:15:13.607Z,10.71
2019-04-06T23:17:46.646Z,10.67
2019-04-06T23:20:19.440Z,10.65
2019-04-06T23:22:52.584Z,10.63
2019-04-06T23:25:25.622Z,10.60
2019-04-06T23:27:58.720Z,10.58
2019-04-06T23:30:31.793Z,10.54
2019-04-06T23:33:04.996Z,10.50
2019-04-06T23:35:37.937Z,10.44
2019-04-06T23:38:11.234Z,10.45
2019-04-06T23:40:44.319Z,10.40
2019-04-06T23:43:17.213Z,10.34
2019-04-06T23:45:50.378Z,10.34
2019-04-06T23:48:23.376Z,10.29
2019-04-06T23:50:56.177Z,10.27
2019-04-06T23:53:29.371Z,10.22
2019-04-06T23:56:02.692Z,10.20
2019-04-06T23:58:35.615Z,10.14
